sensor_id;sensor_type;location;lat;lon;timestamp;pressure;altitude;pressure_sealevel;temperature;humidity
15444;BME280;7822;48.146;11.576;2023-08-06T00:01:39;94511.88;;;19.04;80.77
15444;BME280;7822;48.146;11.576;2023-08-06T00:04:08;94514.50;;;19.04;80.82
15444;BME280;7822;48.146;11.576;2023-08-06T00:06:35;94510.88;;;19.05;80.86
15444;BME280;7822;48.146;11.576;2023-08-06T00:09:03;94517.94;;;19.05;80.87
15444;BME280;7822;48.146;11.576;2023-08-06T00:11:30;94513.50;;;19.05;80.75
15444;BME280;7822;48.146;11.576;2023-08-06T00:13:58;94512.69;;;19.05;80.76
15444;BME280;7822;48.146;11.576;2023-08-06T00:16:25;94517.13;;;19.04;80.88
15444;BME280;7822;48.146;11.576;2023-08-06T00:18:53;94515.31;;;19.05;80.83
15444;BME280;7822;48.146;11.576;2023-08-06T00:21:22;94508.41;;;19.04;80.73
15444;BME280;7822;48.146;11.576;2023-08-06T00:23:49;94515.31;;;19.05;80.79
15444;BME280;7822;48.146;11.576;2023-08-06T00:26:18;94512.69;;;19.05;80.91
15444;BME280;7822;48.146;11.576;2023-08-06T00:28:46;94514.50;;;19.04;80.77
15444;BME280;7822;48.146;11.576;2023-08-06T00:31:13;94515.31;;;19.05;80.93
15444;BME280;7822;48.146;11.576;2023-08-06T00:33:40;94514.50;;;19.04;80.79
15444;BME280;7822;48.146;11.576;2023-08-06T00:36:08;94501.34;;;19.04;80.92
15444;BME280;7822;48.146;11.576;2023-08-06T00:38:37;94503.97;;;19.04;81.00
15444;BME280;7822;48.146;11.576;2023-08-06T00:41:04;94502.34;;;19.03;80.75
15444;BME280;7822;48.146;11.576;2023-08-06T00:43:32;94503.97;;;19.04;80.83
15444;BME280;7822;48.146;11.576;2023-08-06T00:45:59;94508.41;;;19.04;80.74
15444;BME280;7822;48.146;11.576;2023-08-06T00:48:27;94509.25;;;19.04;80.75
15444;BME280;7822;48.146;11.576;2023-08-06T00:50:55;94504.19;;;19.03;80.79
15444;BME280;7822;48.146;11.576;2023-08-06T00:53:22;94504.97;;;19.03;80.99
15444;BME280;7822;48.146;11.576;2023-08-06T00:55:51;94504.97;;;19.03;80.78
15444;BME280;7822;48.146;11.576;2023-08-06T00:58:19;94499.72;;;19.03;80.78
15444;BME280;7822;48.146;11.576;2023-08-06T01:00:46;94497.91;;;19.04;80.86
15444;BME280;7822;48.146;11.576;2023-08-06T01:03:14;94488.41;;;19.03;80.72
15444;BME280;7822;48.146;11.576;2023-08-06T01:05:42;94487.59;;;19.02;80.91
15444;BME280;7822;48.146;11.576;2023-08-06T01:08:12;94489.19;;;19.03;80.80
15444;BME280;7822;48.146;11.576;2023-08-06T01:10:45;94490.22;;;19.02;80.97
15444;BME280;7822;48.146;11.576;2023-08-06T01:13:23;94491.81;;;19.03;80.76
15444;BME280;7822;48.146;11.576;2023-08-06T01:15:54;94487.59;;;19.02;80.83
15444;BME280;7822;48.146;11.576;2023-08-06T01:18:23;94482.34;;;19.02;80.93
15444;BME280;7822;48.146;11.576;2023-08-06T01:20:52;94483.16;;;19.03;80.97
15444;BME280;7822;48.146;11.576;2023-08-06T01:23:19;94477.06;;;19.02;80.81
15444;BME280;7822;48.146;11.576;2023-08-06T01:25:49;94469.19;;;19.02;80.80
15444;BME280;7822;48.146;11.576;2023-08-06T01:28:22;94467.38;;;19.03;80.78
15444;BME280;7822;48.146;11.576;2023-08-06T01:30:53;94468.16;;;19.03;80.74
15444;BME280;7822;48.146;11.576;2023-08-06T01:33:22;94465.53;;;19.03;80.95
15444;BME280;7822;48.146;11.576;2023-08-06T01:35:51;94465.53;;;19.03;80.83
15444;BME280;7822;48.146;11.576;2023-08-06T01:38:21;94466.56;;;19.02;80.90
15444;BME280;7822;48.146;11.576;2023-08-06T01:40:48;94466.56;;;19.02;80.97
15444;BME280;7822;48.146;11.576;2023-08-06T01:43:16;94468.16;;;19.03;80.96
15444;BME280;7822;48.146;11.576;2023-08-06T01:45:43;94470.00;;;19.03;80.88
15444;BME280;7822;48.146;11.576;2023-08-06T01:48:11;94467.19;;;19.04;80.89
15444;BME280;7822;48.146;11.576;2023-08-06T01:50:38;94465.53;;;19.03;80.83
15444;BME280;7822;48.146;11.576;2023-08-06T01:53:07;94463.94;;;19.02;80.92
15444;BME280;7822;48.146;11.576;2023-08-06T01:55:34;94459.50;;;19.03;80.74
15444;BME280;7822;48.146;11.576;2023-08-06T01:58:02;94454.22;;;19.03;80.72
15444;BME280;7822;48.146;11.576;2023-08-06T02:00:29;94452.38;;;19.03;80.89
15444;BME280;7822;48.146;11.576;2023-08-06T02:02:57;94445.53;;;19.02;80.95
15444;BME280;7822;48.146;11.576;2023-08-06T02:05:24;94447.34;;;19.02;80.64
15444;BME280;7822;48.146;11.576;2023-08-06T02:07:52;94439.25;;;19.03;80.96
15444;BME280;7822;48.146;11.576;2023-08-06T02:10:21;94441.88;;;19.03;80.96
15444;BME280;7822;48.146;11.576;2023-08-06T02:12:48;94438.47;;;19.03;80.82
15444;BME280;7822;48.146;11.576;2023-08-06T02:15:16;94437.63;;;19.02;80.88
15444;BME280;7822;48.146;11.576;2023-08-06T02:17:43;94441.09;;;19.03;80.74
15444;BME280;7822;48.146;11.576;2023-08-06T02:20:11;94436.81;;;19.02;80.88
15444;BME280;7822;48.146;11.576;2023-08-06T02:22:38;94433.19;;;19.03;80.99
15444;BME280;7822;48.146;11.576;2023-08-06T02:25:06;94431.56;;;19.02;80.91
15444;BME280;7822;48.146;11.576;2023-08-06T02:27:35;94426.31;;;19.02;80.73
15444;BME280;7822;48.146;11.576;2023-08-06T02:30:03;94428.94;;;19.02;80.94
15444;BME280;7822;48.146;11.576;2023-08-06T02:32:30;94426.31;;;19.02;81.05
15444;BME280;7822;48.146;11.576;2023-08-06T02:35:01;94421.06;;;19.02;80.80
15444;BME280;7822;48.146;11.576;2023-08-06T02:37:29;94417.59;;;19.01;80.96
15444;BME280;7822;48.146;11.576;2023-08-06T02:39:56;94411.56;;;19.01;80.81
15444;BME280;7822;48.146;11.576;2023-08-06T02:42:24;94401.81;;;19.01;80.79
15444;BME280;7822;48.146;11.576;2023-08-06T02:44:54;94393.94;;;19.01;80.87
15444;BME280;7822;48.146;11.576;2023-08-06T02:47:21;94385.28;;;19.01;81.01
15444;BME280;7822;48.146;11.576;2023-08-06T02:49:49;94385.28;;;19.01;80.82
15444;BME280;7822;48.146;11.576;2023-08-06T02:52:17;94383.44;;;19.01;80.83
15444;BME280;7822;48.146;11.576;2023-08-06T02:54:44;94390.53;;;19.01;80.93
15444;BME280;7822;48.146;11.576;2023-08-06T02:57:12;94385.28;;;19.01;81.01
15444;BME280;7822;48.146;11.576;2023-08-06T02:59:39;94380.00;;;19.01;80.95
15444;BME280;7822;48.146;11.576;2023-08-06T03:02:08;94376.56;;;19.00;80.89
15444;BME280;7822;48.146;11.576;2023-08-06T03:04:36;94380.00;;;19.01;80.81
15444;BME280;7822;48.146;11.576;2023-08-06T03:07:03;94385.28;;;19.01;80.96
15444;BME280;7822;48.146;11.576;2023-08-06T03:09:31;94383.44;;;19.01;80.91
15444;BME280;7822;48.146;11.576;2023-08-06T03:11:58;94401.03;;;19.01;80.81
15444;BME280;7822;48.146;11.576;2023-08-06T03:14:26;94407.91;;;19.02;80.89
15444;BME280;7822;48.146;11.576;2023-08-06T03:16:53;94399.19;;;19.01;80.94
15444;BME280;7822;48.146;11.576;2023-08-06T03:19:22;94401.03;;;19.01;80.99
15444;BME280;7822;48.146;11.576;2023-08-06T03:21:49;94384.44;;;19.00;80.83
15444;BME280;7822;48.146;11.576;2023-08-06T03:24:17;94391.31;;;19.01;80.80
15444;BME280;7822;48.146;11.576;2023-08-06T03:26:45;94382.44;;;19.02;80.79
15444;BME280;7822;48.146;11.576;2023-08-06T03:29:12;94380.78;;;19.01;80.89
15444;BME280;7822;48.146;11.576;2023-08-06T03:31:40;94379.19;;;19.00;81.01
15444;BME280;7822;48.146;11.576;2023-08-06T03:34:07;94379.00;;;19.02;80.67
15444;BME280;7822;48.146;11.576;2023-08-06T03:36:36;94377.38;;;19.01;80.90
15444;BME280;7822;48.146;11.576;2023-08-06T03:39:04;94380.78;;;19.01;80.72
15444;BME280;7822;48.146;11.576;2023-08-06T03:41:31;94387.91;;;19.01;80.75
15444;BME280;7822;48.146;11.576;2023-08-06T03:43:59;94386.88;;;19.02;80.98
15444;BME280;7822;48.146;11.576;2023-08-06T03:46:28;94380.00;;;19.01;80.81
15444;BME280;7822;48.146;11.576;2023-08-06T03:48:58;94377.38;;;19.01;80.78
15444;BME280;7822;48.146;11.576;2023-08-06T03:51:26;94372.13;;;19.01;80.70
15444;BME280;7822;48.146;11.576;2023-08-06T03:53:55;94374.75;;;19.01;80.84
15444;BME280;7822;48.146;11.576;2023-08-06T03:56:22;94373.94;;;19.00;80.87
15444;BME280;7822;48.146;11.576;2023-08-06T03:58:50;94368.69;;;19.00;80.88
15444;BME280;7822;48.146;11.576;2023-08-06T04:01:17;94370.50;;;19.00;80.81
15444;BME280;7822;48.146;11.576;2023-08-06T04:03:45;94365.22;;;19.00;80.84
15444;BME280;7822;48.146;11.576;2023-08-06T04:06:12;94368.69;;;19.00;80.97
15444;BME280;7822;48.146;11.576;2023-08-06T04:08:40;94373.94;;;19.00;80.90
15444;BME280;7822;48.146;11.576;2023-08-06T04:11:08;94373.13;;;19.00;80.96
15444;BME280;7822;48.146;11.576;2023-08-06T04:13:36;94365.22;;;19.00;81.05
15444;BME280;7822;48.146;11.576;2023-08-06T04:16:04;94361.00;;;18.99;81.21
15444;BME280;7822;48.146;11.576;2023-08-06T04:18:31;94364.41;;;18.99;80.83
15444;BME280;7822;48.146;11.576;2023-08-06T04:20:59;94373.94;;;19.00;81.07
15444;BME280;7822;48.146;11.576;2023-08-06T04:23:28;94381.81;;;19.00;81.06
15444;BME280;7822;48.146;11.576;2023-08-06T04:25:56;94379.19;;;19.00;80.93
15444;BME280;7822;48.146;11.576;2023-08-06T04:28:25;94378.38;;;19.00;80.80
15444;BME280;7822;48.146;11.576;2023-08-06T04:30:52;94375.75;;;19.00;81.00
15444;BME280;7822;48.146;11.576;2023-08-06T04:33:20;94372.28;;;18.99;80.81
15444;BME280;7822;48.146;11.576;2023-08-06T04:35:51;94381.81;;;19.00;80.85
15444;BME280;7822;48.146;11.576;2023-08-06T04:38:20;94384.44;;;19.00;81.05
15444;BME280;7822;48.146;11.576;2023-08-06T04:40:48;94387.06;;;19.00;81.04
15444;BME280;7822;48.146;11.576;2023-08-06T04:43:15;94393.31;;;18.99;80.89
15444;BME280;7822;48.146;11.576;2023-08-06T04:45:46;94388.88;;;19.00;81.03
15444;BME280;7822;48.146;11.576;2023-08-06T04:48:14;94385.28;;;19.01;81.02
15444;BME280;7822;48.146;11.576;2023-08-06T04:50:45;94387.06;;;19.00;80.84
15444;BME280;7822;48.146;11.576;2023-08-06T04:53:13;94380.00;;;19.01;80.84
15444;BME280;7822;48.146;11.576;2023-08-06T04:55:40;94383.44;;;19.01;80.92
15444;BME280;7822;48.146;11.576;2023-08-06T04:58:08;94377.38;;;19.01;81.07
15444;BME280;7822;48.146;11.576;2023-08-06T05:00:36;94372.91;;;19.01;80.80
15444;BME280;7822;48.146;11.576;2023-08-06T05:03:05;94370.50;;;19.00;80.84
15444;BME280;7822;48.146;11.576;2023-08-06T05:05:33;94367.84;;;19.00;80.94
15444;BME280;7822;48.146;11.576;2023-08-06T05:08:00;94377.38;;;19.01;80.85
15444;BME280;7822;48.146;11.576;2023-08-06T05:10:28;94375.53;;;19.01;80.99
15444;BME280;7822;48.146;11.576;2023-08-06T05:12:55;94365.22;;;19.00;80.86
15444;BME280;7822;48.146;11.576;2023-08-06T05:15:23;94374.75;;;19.01;80.85
15444;BME280;7822;48.146;11.576;2023-08-06T05:17:51;94375.53;;;19.01;80.83
15444;BME280;7822;48.146;11.576;2023-08-06T05:20:20;94372.91;;;19.01;81.01
15444;BME280;7822;48.146;11.576;2023-08-06T05:22:48;94366.03;;;19.00;80.97
15444;BME280;7822;48.146;11.576;2023-08-06T05:25:15;94374.75;;;19.01;81.01
15444;BME280;7822;48.146;11.576;2023-08-06T05:27:43;94382.63;;;19.01;81.03
15444;BME280;7822;48.146;11.576;2023-08-06T05:30:10;94375.75;;;19.00;81.13
15444;BME280;7822;48.146;11.576;2023-08-06T05:32:38;94384.44;;;19.00;80.89
15444;BME280;7822;48.146;11.576;2023-08-06T05:35:06;94386.25;;;19.00;81.04
15444;BME280;7822;48.146;11.576;2023-08-06T05:37:34;94386.25;;;19.00;81.05
15444;BME280;7822;48.146;11.576;2023-08-06T05:40:02;94388.88;;;19.00;81.09
15444;BME280;7822;48.146;11.576;2023-08-06T05:42:30;94388.88;;;19.00;81.15
15444;BME280;7822;48.146;11.576;2023-08-06T05:44:58;94380.19;;;18.99;81.11
15444;BME280;7822;48.146;11.576;2023-08-06T05:47:25;94381.00;;;19.00;81.10
15444;BME280;7822;48.146;11.576;2023-08-06T05:49:52;94378.38;;;19.00;80.92
15444;BME280;7822;48.146;11.576;2023-08-06T05:52:20;94380.19;;;18.99;81.01
15444;BME280;7822;48.146;11.576;2023-08-06T05:54:49;94374.13;;;18.99;81.00
15444;BME280;7822;48.146;11.576;2023-08-06T05:57:16;94376.78;;;18.99;81.03
15444;BME280;7822;48.146;11.576;2023-08-06T05:59:44;94368.88;;;18.99;81.07
15444;BME280;7822;48.146;11.576;2023-08-06T06:02:11;94368.06;;;18.98;81.01
15444;BME280;7822;48.146;11.576;2023-08-06T06:04:40;94373.31;;;18.98;80.91
15444;BME280;7822;48.146;11.576;2023-08-06T06:07:08;94374.13;;;18.99;81.05
15444;BME280;7822;48.146;11.576;2023-08-06T06:09:35;94375.94;;;18.98;81.03
15444;BME280;7822;48.146;11.576;2023-08-06T06:12:04;94373.94;;;19.00;80.89
15444;BME280;7822;48.146;11.576;2023-08-06T06:14:32;94379.56;;;18.97;80.86
15444;BME280;7822;48.146;11.576;2023-08-06T06:17:00;94385.66;;;18.98;80.97
15444;BME280;7822;48.146;11.576;2023-08-06T06:19:27;94388.28;;;18.98;80.89
15444;BME280;7822;48.146;11.576;2023-08-06T06:21:55;94389.09;;;18.98;80.99
15444;BME280;7822;48.146;11.576;2023-08-06T06:24:24;94391.72;;;18.98;80.89
15444;BME280;7822;48.146;11.576;2023-08-06T06:26:51;94381.22;;;18.98;80.94
15444;BME280;7822;48.146;11.576;2023-08-06T06:29:20;94374.13;;;18.99;81.10
15444;BME280;7822;48.146;11.576;2023-08-06T06:31:48;94388.28;;;18.98;80.86
15444;BME280;7822;48.146;11.576;2023-08-06T06:34:15;94380.19;;;18.99;80.99
15444;BME280;7822;48.146;11.576;2023-08-06T06:36:43;94373.31;;;18.98;80.94
15444;BME280;7822;48.146;11.576;2023-08-06T06:39:10;94377.56;;;18.99;80.82
15444;BME280;7822;48.146;11.576;2023-08-06T06:41:38;94371.50;;;18.99;80.94
15444;BME280;7822;48.146;11.576;2023-08-06T06:44:06;94368.06;;;18.98;80.81
15444;BME280;7822;48.146;11.576;2023-08-06T06:46:35;94374.13;;;18.99;80.87
15444;BME280;7822;48.146;11.576;2023-08-06T06:49:02;94367.25;;;18.98;80.88
15444;BME280;7822;48.146;11.576;2023-08-06T06:51:30;94373.31;;;18.98;81.03
15444;BME280;7822;48.146;11.576;2023-08-06T06:53:58;94373.31;;;18.98;81.04
15444;BME280;7822;48.146;11.576;2023-08-06T06:56:26;94376.56;;;19.00;81.06
15444;BME280;7822;48.146;11.576;2023-08-06T06:58:54;94376.78;;;18.99;80.94
15444;BME280;7822;48.146;11.576;2023-08-06T07:01:21;94378.56;;;18.98;80.86
15444;BME280;7822;48.146;11.576;2023-08-06T07:03:50;94374.13;;;18.99;81.03
15444;BME280;7822;48.146;11.576;2023-08-06T07:06:18;94387.28;;;18.99;81.05
15444;BME280;7822;48.146;11.576;2023-08-06T07:08:45;94374.13;;;18.99;81.04
15444;BME280;7822;48.146;11.576;2023-08-06T07:11:13;94380.38;;;18.98;80.75
15444;BME280;7822;48.146;11.576;2023-08-06T07:13:40;94386.47;;;18.98;80.92
15444;BME280;7822;48.146;11.576;2023-08-06T07:16:07;94402.25;;;18.98;81.05
15444;BME280;7822;48.146;11.576;2023-08-06T07:18:37;94393.53;;;18.98;81.08
15444;BME280;7822;48.146;11.576;2023-08-06T07:21:06;94398.78;;;18.98;80.92
15444;BME280;7822;48.146;11.576;2023-08-06T07:23:33;94389.09;;;18.98;80.92
15444;BME280;7822;48.146;11.576;2023-08-06T07:26:01;94398.78;;;18.98;81.12
15444;BME280;7822;48.146;11.576;2023-08-06T07:28:28;94392.53;;;18.99;80.96
15444;BME280;7822;48.146;11.576;2023-08-06T07:30:56;94391.50;;;19.00;80.91
15444;BME280;7822;48.146;11.576;2023-08-06T07:33:23;94386.47;;;18.98;80.84
15444;BME280;7822;48.146;11.576;2023-08-06T07:35:51;94394.97;;;19.00;80.95
15444;BME280;7822;48.146;11.576;2023-08-06T07:38:20;94388.88;;;19.00;81.07
15444;BME280;7822;48.146;11.576;2023-08-06T07:40:48;94390.53;;;19.01;81.02
15444;BME280;7822;48.146;11.576;2023-08-06T07:43:15;94386.06;;;19.01;80.99
15444;BME280;7822;48.146;11.576;2023-08-06T07:45:42;94378.38;;;19.00;81.03
15444;BME280;7822;48.146;11.576;2023-08-06T07:48:10;94378.16;;;19.01;80.93
15444;BME280;7822;48.146;11.576;2023-08-06T07:50:37;94384.44;;;19.00;81.04
15444;BME280;7822;48.146;11.576;2023-08-06T07:53:05;94377.38;;;19.01;80.92
15444;BME280;7822;48.146;11.576;2023-08-06T07:55:34;94370.50;;;19.00;81.15
15444;BME280;7822;48.146;11.576;2023-08-06T07:58:01;94382.63;;;19.01;81.13
15444;BME280;7822;48.146;11.576;2023-08-06T08:00:29;94361.78;;;18.99;81.10
15444;BME280;7822;48.146;11.576;2023-08-06T08:02:56;94358.16;;;19.00;80.87
15444;BME280;7822;48.146;11.576;2023-08-06T08:05:24;94366.03;;;19.00;81.02
15444;BME280;7822;48.146;11.576;2023-08-06T08:07:51;94366.03;;;19.00;81.06
15444;BME280;7822;48.146;11.576;2023-08-06T08:10:19;94364.25;;;19.01;81.10
15444;BME280;7822;48.146;11.576;2023-08-06T08:12:48;94364.25;;;19.01;80.92
15444;BME280;7822;48.146;11.576;2023-08-06T08:15:15;94358.78;;;19.02;81.02
15444;BME280;7822;48.146;11.576;2023-08-06T08:17:42;94348.47;;;19.01;81.07
15444;BME280;7822;48.146;11.576;2023-08-06T08:20:10;94354.50;;;19.01;80.83
15444;BME280;7822;48.146;11.576;2023-08-06T08:22:38;94363.22;;;19.02;81.16
15444;BME280;7822;48.146;11.576;2023-08-06T08:25:05;94354.50;;;19.01;81.25
15444;BME280;7822;48.146;11.576;2023-08-06T08:27:33;94355.31;;;19.02;81.28
15444;BME280;7822;48.146;11.576;2023-08-06T08:30:02;94349.25;;;19.01;81.17
15444;BME280;7822;48.146;11.576;2023-08-06T08:32:30;94358.97;;;19.01;80.92
15444;BME280;7822;48.146;11.576;2023-08-06T08:34:57;94350.06;;;19.02;80.77
15444;BME280;7822;48.146;11.576;2023-08-06T08:37:25;94357.13;;;19.01;80.90
15444;BME280;7822;48.146;11.576;2023-08-06T08:39:52;94355.53;;;19.00;81.12
15444;BME280;7822;48.146;11.576;2023-08-06T08:42:21;94353.72;;;19.01;80.94
15444;BME280;7822;48.146;11.576;2023-08-06T08:44:49;94350.28;;;19.00;81.14
15444;BME280;7822;48.146;11.576;2023-08-06T08:47:18;94366.03;;;19.00;80.91
15444;BME280;7822;48.146;11.576;2023-08-06T08:49:45;94352.09;;;19.00;81.12
15444;BME280;7822;48.146;11.576;2023-08-06T08:52:14;94367.66;;;19.01;80.93
15444;BME280;7822;48.146;11.576;2023-08-06T08:54:42;94374.75;;;19.01;81.06
15444;BME280;7822;48.146;11.576;2023-08-06T08:57:10;94370.50;;;19.00;81.01
15444;BME280;7822;48.146;11.576;2023-08-06T08:59:38;94366.88;;;19.01;80.91
15444;BME280;7822;48.146;11.576;2023-08-06T09:02:05;94372.91;;;19.01;81.11
15444;BME280;7822;48.146;11.576;2023-08-06T09:04:37;94371.31;;;19.00;81.01
15444;BME280;7822;48.146;11.576;2023-08-06T09:07:04;94377.38;;;19.01;81.18
15444;BME280;7822;48.146;11.576;2023-08-06T09:09:33;94382.63;;;19.01;81.12
15444;BME280;7822;48.146;11.576;2023-08-06T09:12:05;94389.72;;;19.00;81.19
15444;BME280;7822;48.146;11.576;2023-08-06T09:14:37;94387.06;;;19.00;81.04
15444;BME280;7822;48.146;11.576;2023-08-06T09:17:05;94384.44;;;19.00;81.26
15444;BME280;7822;48.146;11.576;2023-08-06T09:19:32;94382.81;;;18.99;81.19
15444;BME280;7822;48.146;11.576;2023-08-06T09:22:01;94374.94;;;18.99;81.06
15444;BME280;7822;48.146;11.576;2023-08-06T09:24:29;94382.81;;;18.99;81.03
15444;BME280;7822;48.146;11.576;2023-08-06T09:26:56;94378.38;;;19.00;81.07
15444;BME280;7822;48.146;11.576;2023-08-06T09:29:24;94378.38;;;19.00;81.20
15444;BME280;7822;48.146;11.576;2023-08-06T09:31:52;94378.38;;;19.00;81.13
15444;BME280;7822;48.146;11.576;2023-08-06T09:34:20;94373.13;;;19.00;81.08
15444;BME280;7822;48.146;11.576;2023-08-06T09:36:49;94387.06;;;19.00;80.97
15444;BME280;7822;48.146;11.576;2023-08-06T09:39:19;94372.28;;;18.99;80.93
15444;BME280;7822;48.146;11.576;2023-08-06T09:41:47;94375.75;;;19.00;81.01
15444;BME280;7822;48.146;11.576;2023-08-06T09:44:17;94378.38;;;19.00;80.91
15444;BME280;7822;48.146;11.576;2023-08-06T09:46:47;94382.81;;;18.99;81.10
15444;BME280;7822;48.146;11.576;2023-08-06T09:49:14;94371.50;;;18.99;80.95
15444;BME280;7822;48.146;11.576;2023-08-06T09:51:42;94381.00;;;19.00;80.97
15444;BME280;7822;48.146;11.576;2023-08-06T09:54:11;94373.13;;;19.00;80.98
15444;BME280;7822;48.146;11.576;2023-08-06T09:56:53;94374.94;;;18.99;80.99
15444;BME280;7822;48.146;11.576;2023-08-06T09:59:22;94392.34;;;19.00;81.12
15444;BME280;7822;48.146;11.576;2023-08-06T10:01:50;94380.00;;;19.01;81.08
15444;BME280;7822;48.146;11.576;2023-08-06T10:04:19;94382.63;;;19.01;81.03
15444;BME280;7822;48.146;11.576;2023-08-06T10:06:52;94388.88;;;19.00;81.16
15444;BME280;7822;48.146;11.576;2023-08-06T10:09:20;94391.50;;;19.00;81.13
15444;BME280;7822;48.146;11.576;2023-08-06T10:11:49;94403.66;;;19.01;81.12
15444;BME280;7822;48.146;11.576;2023-08-06T10:14:21;94387.28;;;18.99;81.16
15444;BME280;7822;48.146;11.576;2023-08-06T10:16:50;94392.34;;;19.00;81.26
15444;BME280;7822;48.146;11.576;2023-08-06T10:19:18;94391.50;;;19.00;81.12
15444;BME280;7822;48.146;11.576;2023-08-06T10:24:44;94383.63;;;19.00;80.87
15444;BME280;7822;48.146;11.576;2023-08-06T10:27:12;94377.56;;;18.99;81.16
15444;BME280;7822;48.146;11.576;2023-08-06T10:29:41;94398.59;;;18.99;81.16
15444;BME280;7822;48.146;11.576;2023-08-06T10:32:08;94396.78;;;19.00;81.05
15444;BME280;7822;48.146;11.576;2023-08-06T10:34:55;94406.47;;;18.99;81.04
15444;BME280;7822;48.146;11.576;2023-08-06T10:37:23;94410.94;;;18.99;81.05
15444;BME280;7822;48.146;11.576;2023-08-06T10:39:51;94412.53;;;19.00;81.08
15444;BME280;7822;48.146;11.576;2023-08-06T10:42:20;94402.25;;;18.98;81.18
15444;BME280;7822;48.146;11.576;2023-08-06T10:47:38;94401.41;;;18.98;80.93
15444;BME280;7822;48.146;11.576;2023-08-06T10:50:11;94405.69;;;18.99;81.21
15444;BME280;7822;48.146;11.576;2023-08-06T10:52:38;94406.69;;;18.98;81.07
15444;BME280;7822;48.146;11.576;2023-08-06T10:55:06;94410.13;;;18.98;81.16
15444;BME280;7822;48.146;11.576;2023-08-06T10:57:35;94409.50;;;18.96;80.58
15444;BME280;7822;48.146;11.576;2023-08-06T11:00:04;94402.38;;;18.90;78.32
15444;BME280;7822;48.146;11.576;2023-08-06T11:02:47;94402.94;;;18.86;76.70
15444;BME280;7822;48.146;11.576;2023-08-06T11:05:15;94409.22;;;18.85;75.96
15444;BME280;7822;48.146;11.576;2023-08-06T11:07:43;94407.78;;;18.82;75.01
15444;BME280;7822;48.146;11.576;2023-08-06T11:10:11;94394.84;;;18.81;74.91
15444;BME280;7822;48.146;11.576;2023-08-06T11:12:39;94396.03;;;18.78;73.30
15444;BME280;7822;48.146;11.576;2023-08-06T11:15:07;94419.69;;;18.78;73.55
15444;BME280;7822;48.146;11.576;2023-08-06T11:17:35;94414.66;;;18.77;72.98
15444;BME280;7822;48.146;11.576;2023-08-06T11:20:04;94420.88;;;18.76;72.73
15444;BME280;7822;48.146;11.576;2023-08-06T11:22:32;94433.03;;;18.77;73.21
15444;BME280;7822;48.146;11.576;2023-08-06T11:25:00;94437.47;;;18.76;72.93
15444;BME280;7822;48.146;11.576;2023-08-06T11:27:28;94436.03;;;18.74;72.26
15444;BME280;7822;48.146;11.576;2023-08-06T11:29:55;94436.25;;;18.72;71.76
15444;BME280;7822;48.146;11.576;2023-08-06T11:32:23;94443.31;;;18.72;70.43
15444;BME280;7822;48.146;11.576;2023-08-06T11:34:53;94447.13;;;18.69;69.71
15444;BME280;7822;48.146;11.576;2023-08-06T11:37:23;94428.94;;;18.68;69.61
15444;BME280;7822;48.146;11.576;2023-08-06T11:39:51;94430.75;;;18.67;70.06
15444;BME280;7822;48.146;11.576;2023-08-06T11:42:19;94444.69;;;18.68;70.37
15444;BME280;7822;48.146;11.576;2023-08-06T11:44:47;94438.63;;;18.67;70.33
15444;BME280;7822;48.146;11.576;2023-08-06T11:47:15;94441.25;;;18.67;70.26
15444;BME280;7822;48.146;11.576;2023-08-06T11:49:43;94452.94;;;18.65;70.17
15444;BME280;7822;48.146;11.576;2023-08-06T11:52:13;94450.31;;;18.65;70.01
15444;BME280;7822;48.146;11.576;2023-08-06T11:54:42;94445.25;;;18.63;69.92
15444;BME280;7822;48.146;11.576;2023-08-06T11:57:10;94451.34;;;18.64;70.12
15444;BME280;7822;48.146;11.576;2023-08-06T11:59:38;94450.50;;;18.63;69.75
15444;BME280;7822;48.146;11.576;2023-08-06T12:02:07;94452.31;;;18.63;69.71
15444;BME280;7822;48.146;11.576;2023-08-06T12:04:58;94466.44;;;18.62;69.50
15444;BME280;7822;48.146;11.576;2023-08-06T12:07:26;94463.66;;;18.63;70.56
15444;BME280;7822;48.146;11.576;2023-08-06T12:09:55;94459.84;;;18.66;71.20
15444;BME280;7822;48.146;11.576;2023-08-06T12:12:23;94465.72;;;18.68;71.57
15444;BME280;7822;48.146;11.576;2023-08-06T12:14:50;94458.44;;;18.70;71.84
15444;BME280;7822;48.146;11.576;2023-08-06T12:17:18;94449.53;;;18.71;72.14
15444;BME280;7822;48.146;11.576;2023-08-06T12:19:45;94444.91;;;18.73;72.40
15444;BME280;7822;48.146;11.576;2023-08-06T12:22:13;94463.13;;;18.74;72.72
15444;BME280;7822;48.146;11.576;2023-08-06T12:24:41;94456.84;;;18.75;72.86
15444;BME280;7822;48.146;11.576;2023-08-06T12:27:10;94454.22;;;18.75;73.24
15444;BME280;7822;48.146;11.576;2023-08-06T12:29:40;94449.59;;;18.77;73.23
15444;BME280;7822;48.146;11.576;2023-08-06T12:32:08;94449.59;;;18.77;73.62
15444;BME280;7822;48.146;11.576;2023-08-06T12:34:35;94450.41;;;18.78;73.89
15444;BME280;7822;48.146;11.576;2023-08-06T12:37:18;94446.97;;;18.77;74.23
15444;BME280;7822;48.146;11.576;2023-08-06T12:39:46;94450.22;;;18.79;74.40
15444;BME280;7822;48.146;11.576;2023-08-06T12:42:15;94473.06;;;18.79;74.48
15444;BME280;7822;48.146;11.576;2023-08-06T12:44:42;94451.84;;;18.80;74.74
15444;BME280;7822;48.146;11.576;2023-08-06T12:47:10;94470.25;;;18.80;74.74
15444;BME280;7822;48.146;11.576;2023-08-06T12:49:37;94486.00;;;18.80;74.89
15444;BME280;7822;48.146;11.576;2023-08-06T12:52:05;94481.56;;;18.81;75.10
15444;BME280;7822;48.146;11.576;2023-08-06T12:54:35;94482.41;;;18.81;75.14
15444;BME280;7822;48.146;11.576;2023-08-06T12:57:03;94490.28;;;18.81;75.46
15444;BME280;7822;48.146;11.576;2023-08-06T12:59:32;94485.03;;;18.81;75.38
15444;BME280;7822;48.146;11.576;2023-08-06T13:02:02;94487.44;;;18.83;75.73
15444;BME280;7822;48.146;11.576;2023-08-06T13:04:30;94484.81;;;18.83;75.85
15444;BME280;7822;48.146;11.576;2023-08-06T13:07:00;94484.81;;;18.83;75.88
15444;BME280;7822;48.146;11.576;2023-08-06T13:09:28;94491.69;;;18.84;76.01
15444;BME280;7822;48.146;11.576;2023-08-06T13:11:58;94496.94;;;18.84;75.79